Time;durP1;ratioP1;P1;durP2;ratioP2;P2;SDS_P1;SDS_P2;PMS_P1;PMS_P2;Temp;Humidity;BMP_temperature;BMP_pressure;BME280_temperature;BME280_humidity;BME280_pressure;Samples;Min_cycle;Max_cycle;Signal;HPM_P1;HPM_P2
2022/08/27 00:00:38;;;;;;;4.18;1.52;;;;;;;24.55;47.49;101677.56;4983331;28;20041;-68
2022/08/27 00:03:03;;;;;;;3.70;1.47;;;;;;;24.55;47.29;101683.72;4979396;28;20031;-67
2022/08/27 00:05:28;;;;;;;3.57;1.60;;;;;;;24.51;47.49;101678.81;4964451;28;20661;-69
2022/08/27 00:07:54;;;;;;;4.20;1.47;;;;;;;24.51;47.35;101673.50;4976671;28;20275;-67
2022/08/27 00:10:23;;;;;;;3.58;1.50;;;;;;;24.50;47.37;101671.81;4981132;28;20781;-69
2022/08/27 00:12:49;;;;;;;4.55;1.55;;;;;;;24.47;46.94;101672.94;4980271;28;20049;-68
2022/08/27 00:15:15;;;;;;;4.70;1.50;;;;;;;24.51;47.35;101682.31;4974222;28;20386;-68
2022/08/27 00:17:44;;;;;;;4.55;1.38;;;;;;;24.48;47.31;101676.44;4983218;28;20030;-69
2022/08/27 00:20:11;;;;;;;4.40;1.58;;;;;;;24.45;46.93;101669.59;4968429;28;20040;-68
2022/08/27 00:22:36;;;;;;;3.92;1.60;;;;;;;24.48;47.43;101671.13;4983265;28;20037;-68
2022/08/27 00:25:01;;;;;;;3.37;1.30;;;;;;;24.43;47.20;101671.56;4982952;28;20026;-67
2022/08/27 00:27:26;;;;;;;4.85;1.60;;;;;;;24.44;47.24;101670.56;4981357;28;20280;-67
2022/08/27 00:29:52;;;;;;;3.80;1.43;;;;;;;24.44;46.85;101668.75;4982788;28;20455;-68
2022/08/27 00:32:18;;;;;;;3.90;1.40;;;;;;;24.41;46.90;101662.88;4982919;28;20267;-67
2022/08/27 00:34:43;;;;;;;3.63;1.45;;;;;;;24.41;47.46;101658.38;4974529;28;20038;-67
2022/08/27 00:37:09;;;;;;;3.42;1.45;;;;;;;24.40;47.38;101662.06;4967731;28;20620;-67
2022/08/27 00:39:35;;;;;;;3.95;1.70;;;;;;;24.37;47.28;101667.66;4963523;28;20125;-69
2022/08/27 00:42:02;;;;;;;3.53;1.35;;;;;;;24.34;46.91;101664.44;4971631;28;20474;-67
2022/08/27 00:44:28;;;;;;;4.60;1.40;;;;;;;24.35;46.95;101671.44;4962258;28;20035;-70
2022/08/27 00:47:00;;;;;;;6.35;1.60;;;;;;;24.35;46.89;101669.63;4963543;28;20124;-68
2022/08/27 00:49:41;;;;;;;4.50;1.65;;;;;;;24.30;47.15;101660.41;4963426;28;20047;-70
2022/08/27 00:52:17;;;;;;;4.80;1.63;;;;;;;24.32;47.31;101666.41;4963203;28;20118;-68
2022/08/27 00:54:43;;;;;;;3.95;1.40;;;;;;;24.23;46.95;101655.66;4968977;28;20409;-68
2022/08/27 00:57:08;;;;;;;3.35;1.42;;;;;;;24.29;47.00;101664.88;4975667;28;20081;-68
2022/08/27 00:59:34;;;;;;;3.05;1.42;;;;;;;24.27;47.33;101673.03;4963398;28;20030;-66
2022/08/27 01:02:18;;;;;;;3.55;1.55;;;;;;;24.23;47.40;101660.16;4963024;28;20380;-69
2022/08/27 01:04:52;;;;;;;5.50;1.50;;;;;;;24.25;47.18;101661.66;4979648;28;20033;-66
2022/08/27 01:07:17;;;;;;;;;;;;;;;24.25;47.00;101658.19;4965864;28;20042;-66
2022/08/27 01:09:44;;;;;;;3.67;1.58;;;;;;;24.22;46.97;101655.81;4970068;28;19913;-67
2022/08/27 01:12:10;;;;;;;3.25;1.40;;;;;;;24.21;46.94;101664.75;4982229;28;20034;-66
2022/08/27 01:14:36;;;;;;;3.67;1.40;;;;;;;24.22;47.17;101653.13;4971771;28;20038;-68
2022/08/27 01:17:05;;;;;;;4.13;1.50;;;;;;;24.18;46.84;101657.94;4962956;28;20031;-67
2022/08/27 01:19:33;;;;;;;3.53;1.60;;;;;;;24.19;47.09;101659.59;4975003;28;20038;-67
2022/08/27 01:22:11;;;;;;;4.03;1.50;;;;;;;24.14;46.82;101650.38;4981843;28;20113;-67
2022/08/27 01:24:47;;;;;;;3.72;1.50;;;;;;;24.15;47.43;101658.22;4982124;28;20030;-67
2022/08/27 01:27:18;;;;;;;4.10;1.70;;;;;;;24.15;46.94;101663.53;4972083;28;20061;-68
2022/08/27 01:29:43;;;;;;;4.03;1.60;;;;;;;24.13;47.13;101652.16;4968773;28;20157;-68
2022/08/27 01:32:13;;;;;;;5.25;1.50;;;;;;;24.12;47.26;101650.50;4981808;28;20141;-68
2022/08/27 01:34:38;;;;;;;3.60;1.63;;;;;;;24.12;47.30;101649.69;4962624;28;20045;-70
2022/08/27 01:37:05;;;;;;;3.97;1.75;;;;;;;24.12;46.77;101655.84;4962698;28;20399;-68
2022/08/27 01:39:35;;;;;;;3.63;1.70;;;;;;;24.10;46.63;101649.81;4966496;28;20045;-67
2022/08/27 01:42:06;;;;;;;4.38;1.50;;;;;;;24.11;46.59;101656.81;4973643;28;20062;-67
2022/08/27 01:44:46;;;;;;;3.80;1.65;;;;;;;24.12;46.95;101657.66;4962742;28;20039;-70
2022/08/27 01:47:12;;;;;;;4.13;2.05;;;;;;;24.10;46.70;101655.16;4972856;28;20042;-68
2022/08/27 01:49:37;;;;;;;4.07;1.63;;;;;;;24.06;47.12;101643.94;4962554;28;20041;-68
2022/08/27 01:52:03;;;;;;;3.90;1.65;;;;;;;24.03;46.53;101640.72;4974476;28;20038;-67
2022/08/27 01:54:29;;;;;;;3.88;1.67;;;;;;;24.04;46.56;101645.91;4981830;28;20065;-67
2022/08/27 01:56:55;;;;;;;3.92;1.77;;;;;;;24.06;46.74;101651.91;4969393;28;20035;-68
2022/08/27 01:59:20;;;;;;;4.30;1.77;;;;;;;24.04;46.69;101653.06;4969870;28;20034;-69
2022/08/27 02:01:45;;;;;;;3.67;1.60;;;;;;;24.02;46.79;101645.22;4966484;28;20568;-70
2022/08/27 02:04:11;;;;;;;4.60;1.67;;;;;;;24.04;46.61;101648.56;4967099;28;20269;-66
2022/08/27 02:06:36;;;;;;;4.35;1.63;;;;;;;24.03;46.86;101646.03;4986495;28;20038;-69
2022/08/27 02:09:02;;;;;;;3.90;1.60;;;;;;;24.02;46.47;101647.03;4978111;28;20035;-67
2022/08/27 02:11:28;;;;;;;4.07;1.65;;;;;;;23.99;46.87;101641.97;4967983;28;20026;-66
2022/08/27 02:13:53;;;;;;;4.00;1.73;;;;;;;23.98;46.47;101635.00;4974770;28;20462;-67
2022/08/27 02:16:18;;;;;;;3.47;1.58;;;;;;;23.99;46.44;101644.66;4969238;28;20287;-67
2022/08/27 02:18:43;;;;;;;5.23;1.83;;;;;;;23.99;46.26;101647.31;4976257;28;20459;-66
2022/08/27 02:21:09;;;;;;;3.60;1.50;;;;;;;23.98;46.88;101637.66;4976188;28;20269;-69
2022/08/27 02:23:35;;;;;;;4.00;1.55;;;;;;;23.97;46.26;101642.13;4969507;28;20269;-70
2022/08/27 02:26:00;;;;;;;4.03;1.63;;;;;;;23.94;46.32;101636.25;4970634;28;20084;-69
2022/08/27 02:28:26;;;;;;;4.10;1.50;;;;;;;23.90;46.75;101620.56;4968004;28;20058;-68
2022/08/27 02:30:51;;;;;;;3.92;1.60;;;;;;;23.89;46.57;101626.03;4967846;28;20042;-70
2022/08/27 02:33:16;;;;;;;3.67;1.60;;;;;;;23.89;46.30;101624.25;4982818;28;20038;-68
2022/08/27 02:35:43;;;;;;;3.83;1.57;;;;;;;23.88;45.97;101619.06;4975087;28;20260;-68
2022/08/27 02:38:09;;;;;;;4.18;1.85;;;;;;;23.90;46.67;101630.41;4974565;28;20279;-70
2022/08/27 02:40:35;;;;;;;4.03;1.55;;;;;;;23.88;46.20;101622.56;4975638;28;20034;-68
2022/08/27 02:43:01;;;;;;;5.38;1.70;;;;;;;23.89;46.18;101623.38;4968389;28;20030;-68
2022/08/27 02:45:26;;;;;;;4.25;1.85;;;;;;;23.89;46.54;101623.38;4978750;28;20406;-68
2022/08/27 02:47:52;;;;;;;4.33;1.90;;;;;;;23.86;45.99;101621.00;4975283;28;20394;-70
2022/08/27 02:50:18;;;;;;;4.65;1.85;;;;;;;23.87;46.39;101628.03;4974299;28;20269;-68
2022/08/27 02:52:44;;;;;;;4.43;1.63;;;;;;;23.84;46.10;101622.97;4970345;28;20041;-67
2022/08/27 02:55:09;;;;;;;4.90;2.00;;;;;;;23.85;46.44;101624.66;4969190;28;20120;-67
2022/08/27 02:57:35;;;;;;;4.60;2.00;;;;;;;23.84;46.64;101622.97;4980459;28;20088;-70
2022/08/27 03:00:00;;;;;;;4.70;2.20;;;;;;;23.77;46.38;101613.88;4973198;28;20031;-70
2022/08/27 03:02:26;;;;;;;4.05;1.77;;;;;;;23.85;46.52;101630.00;4969194;28;20461;-70
2022/08/27 03:04:51;;;;;;;4.65;1.80;;;;;;;23.83;46.41;101627.47;4979820;28;20045;-68
2022/08/27 03:07:16;;;;;;;3.63;1.70;;;;;;;23.81;46.60;101632.03;4976575;28;20034;-67
2022/08/27 03:09:42;;;;;;;3.90;1.80;;;;;;;23.82;46.21;101636.41;4981176;28;20473;-68
2022/08/27 03:12:08;;;;;;;5.00;1.97;;;;;;;23.81;46.47;101629.38;4973804;28;20034;-68
2022/08/27 03:14:33;;;;;;;4.65;1.77;;;;;;;23.83;46.44;101632.78;4973598;28;20264;-68
2022/08/27 03:19:42;;;;;;;4.43;2.03;;;;;;;23.82;46.45;101635.56;4971431;28;20580;-67
2022/08/27 03:22:08;;;;;;;5.20;2.07;;;;;;;23.81;46.28;101633.88;4973800;28;20022;-68
2022/08/27 03:24:34;;;;;;;3.75;1.75;;;;;;;23.78;46.25;101624.34;4966781;28;20319;-67
2022/08/27 03:26:59;;;;;;;4.72;1.98;;;;;;;23.80;46.28;101634.84;4967090;28;20055;-67
2022/08/27 03:29:27;;;;;;;4.13;1.80;;;;;;;23.79;46.68;101630.53;4981596;28;20089;-69
2022/08/27 03:31:52;;;;;;;3.85;1.85;;;;;;;23.79;46.37;101633.19;4972802;28;20344;-68
2022/08/27 03:34:17;;;;;;;3.08;1.60;;;;;;;23.79;46.80;101628.69;4982336;28;20137;-66
2022/08/27 03:36:43;;;;;;;5.03;1.85;;;;;;;23.75;46.63;101623.81;4972487;28;20041;-67
2022/08/27 03:39:08;;;;;;;3.80;1.52;;;;;;;23.77;46.61;101625.34;4970373;28;20121;-68
2022/08/27 03:41:34;;;;;;;4.57;1.80;;;;;;;23.78;46.44;101628.84;4969608;28;20467;-68
2022/08/27 03:43:59;;;;;;;4.30;1.70;;;;;;;23.80;46.29;101635.72;4973456;28;20026;-67
2022/08/27 03:46:28;;;;;;;5.43;1.80;;;;;;;23.78;46.15;101634.16;4970198;28;20316;-69
2022/08/27 03:48:54;;;;;;;3.33;1.77;;;;;;;23.77;46.53;101632.50;4975450;28;20026;-69
2022/08/27 03:51:20;;;;;;;3.60;1.70;;;;;;;23.79;46.48;101642.00;4979250;28;20056;-67
2022/08/27 03:53:45;;;;;;;4.28;1.65;;;;;;;23.77;46.33;101648.47;4972147;28;20034;-67
2022/08/27 03:56:11;;;;;;;4.63;2.25;;;;;;;23.78;46.45;101639.50;4977441;28;20037;-68
2022/08/27 03:58:37;;;;;;;4.32;2.17;;;;;;;23.75;46.37;101629.97;4980096;28;20375;-67
2022/08/27 04:01:04;;;;;;;3.95;1.80;;;;;;;23.77;46.39;101633.34;4964800;28;20081;-66
2022/08/27 04:03:30;;;;;;;5.57;1.90;;;;;;;23.77;46.31;101633.34;4963915;28;20544;-68
2022/08/27 04:05:57;;;;;;;5.15;1.85;;;;;;;23.75;46.57;101640.63;4964262;28;20039;-66
2022/08/27 04:08:23;;;;;;;3.72;1.80;;;;;;;23.76;46.37;101636.13;4964302;28;20065;-66
2022/08/27 04:10:49;;;;;;;4.53;1.70;;;;;;;23.72;46.63;101631.09;4963816;28;20027;-68
2022/08/27 04:13:16;;;;;;;5.13;1.95;;;;;;;23.75;46.65;101632.66;4964039;28;20097;-68
2022/08/27 04:15:46;;;;;;;3.50;1.52;;;;;;;23.69;46.43;101626.06;4965016;28;20034;-68
2022/08/27 04:18:15;;;;;;;3.83;1.80;;;;;;;23.68;46.77;101627.03;4976053;28;20125;-69
2022/08/27 04:20:44;;;;;;;5.43;2.05;;;;;;;23.71;46.55;101626.75;4976489;28;20038;-66
2022/08/27 04:23:09;;;;;;;4.30;1.95;;;;;;;23.72;46.58;101619.63;4972853;28;20043;-68
2022/08/27 04:25:38;;;;;;;4.18;1.88;;;;;;;23.73;46.42;101629.28;4962630;28;20035;-67
2022/08/27 04:28:04;;;;;;;4.20;2.00;;;;;;;23.65;46.68;101621.16;4982753;28;20058;-68
2022/08/27 04:30:30;;;;;;;4.35;1.67;;;;;;;23.71;46.48;101626.75;4981614;28;20034;-68
2022/08/27 04:32:55;;;;;;;5.97;2.05;;;;;;;23.67;46.66;101624.50;4972641;28;20115;-70
2022/08/27 04:35:21;;;;;;;5.68;2.03;;;;;;;23.70;46.40;101629.56;4963650;28;20038;-66
2022/08/27 04:37:46;;;;;;;4.43;2.13;;;;;;;23.67;46.53;101619.19;4963448;28;20162;-67
2022/08/27 04:40:11;;;;;;;3.78;1.60;;;;;;;23.66;46.39;101639.66;4972957;28;20034;-66
2022/08/27 04:42:37;;;;;;;4.23;1.90;;;;;;;23.69;46.13;101643.84;4964469;28;20461;-66
2022/08/27 04:45:03;;;;;;;5.25;1.80;;;;;;;23.68;46.17;101644.84;4967682;28;20296;-67
2022/08/27 04:47:29;;;;;;;3.85;1.80;;;;;;;23.65;46.17;101645.94;4982048;28;20150;-67
2022/08/27 04:49:55;;;;;;;6.00;2.30;;;;;;;23.64;46.42;101646.06;4975109;28;20034;-66
2022/08/27 04:52:20;;;;;;;4.57;2.00;;;;;;;23.66;46.63;101649.47;4978068;28;20041;-68
2022/08/27 04:54:45;;;;;;;5.07;2.10;;;;;;;23.62;46.42;101643.56;4973207;28;20045;-70
2022/08/27 04:57:10;;;;;;;4.83;1.87;;;;;;;23.63;46.13;101641.75;4982262;28;20084;-67
2022/08/27 04:59:37;;;;;;;4.05;2.20;;;;;;;23.66;46.43;101652.94;4982673;28;20724;-69
2022/08/27 05:02:05;;;;;;;3.70;1.67;;;;;;;23.62;46.46;101643.56;4965858;28;20037;-67
2022/08/27 05:04:30;;;;;;;3.85;1.88;;;;;;;23.64;46.62;101656.72;4962788;28;20110;-67
2022/08/27 05:06:56;;;;;;;4.05;1.70;;;;;;;23.60;46.75;101642.88;4975977;28;20117;-69
2022/08/27 05:09:22;;;;;;;3.85;1.77;;;;;;;23.63;46.93;101653.22;4964599;28;20030;-67
2022/08/27 05:11:47;;;;;;;4.25;1.80;;;;;;;23.62;46.58;101654.19;4962757;28;20128;-68
2022/08/27 05:14:15;;;;;;;3.83;1.63;;;;;;;23.63;46.54;101653.22;4963017;28;20506;-65
2022/08/27 05:16:40;;;;;;;5.07;2.10;;;;;;;23.54;46.77;101638.97;4964198;28;20276;-66
2022/08/27 05:19:08;;;;;;;4.85;2.00;;;;;;;23.63;46.85;101655.91;4970339;28;20093;-68
2022/08/27 05:21:37;;;;;;;3.95;1.73;;;;;;;23.61;47.16;101651.72;4973797;28;20031;-68
2022/08/27 05:24:04;;;;;;;5.55;2.22;;;;;;;23.62;46.78;101648.06;4981948;28;20112;-67
2022/08/27 05:26:31;;;;;;;4.57;1.83;;;;;;;23.60;46.74;101650.03;4964511;28;20038;-69
2022/08/27 05:29:00;;;;;;;4.88;1.92;;;;;;;23.62;47.17;101656.88;4961415;28;20170;-68
2022/08/27 05:31:27;;;;;;;6.05;2.08;;;;;;;23.64;46.73;101648.75;4977033;28;20216;-68
2022/08/27 05:33:54;;;;;;;4.03;1.80;;;;;;;23.58;46.79;101644.84;4962439;28;20781;-66
2022/08/27 05:36:24;;;;;;;6.38;2.30;;;;;;;23.64;47.04;101656.72;4975712;28;20069;-68
2022/08/27 05:38:50;;;;;;;5.93;1.95;;;;;;;23.63;46.83;101652.41;4981559;28;20087;-67
2022/08/27 05:41:19;;;;;;;4.38;2.03;;;;;;;23.63;47.08;101652.41;4965847;28;20035;-68
2022/08/27 05:43:45;;;;;;;7.00;2.10;;;;;;;23.64;47.21;101656.72;4962208;28;20035;-67
2022/08/27 05:46:13;;;;;;;6.18;2.10;;;;;;;23.65;46.96;101659.25;4963829;28;20047;-67
2022/08/27 05:48:40;;;;;;;6.30;2.10;;;;;;;23.68;47.03;101660.78;4962362;28;20030;-68
2022/08/27 05:51:13;;;;;;;5.30;1.95;;;;;;;23.63;47.19;101655.91;4962460;28;20038;-68
2022/08/27 05:53:40;;;;;;;7.65;2.63;;;;;;;23.66;47.04;101662.75;4980021;28;20026;-72
2022/08/27 05:56:12;;;;;;;6.50;3.33;;;;;;;23.31;47.53;101649.03;4962502;28;20653;-70
2022/08/27 06:01:22;;;;;;;;;;;;;;;22.77;49.58;101666.28;4973786;28;21032;-70
2022/08/27 06:03:48;;;;;;;7.25;2.67;;;;;;;22.78;50.15;101666.16;4981580;28;19996;-70
2022/08/27 06:06:13;;;;;;;6.93;2.30;;;;;;;22.83;49.54;101663.91;4965248;28;20026;-69
2022/08/27 06:08:38;;;;;;;4.22;2.03;;;;;;;23.04;49.37;101672.78;4980568;28;20044;-67
2022/08/27 06:11:06;;;;;;;4.78;2.10;;;;;;;23.12;49.13;101670.31;4971536;28;20035;-67
2022/08/27 06:13:33;;;;;;;5.25;2.30;;;;;;;23.24;48.66;101686.97;4981318;28;20038;-68
2022/08/27 06:16:02;;;;;;;3.80;1.85;;;;;;;23.32;48.67;101682.66;4969711;28;20466;-71
2022/08/27 06:18:28;;;;;;;3.58;1.80;;;;;;;23.36;48.29;101676.06;4978595;28;20035;-67
2022/08/27 06:20:53;;;;;;;4.95;2.03;;;;;;;23.41;48.91;101674.81;4966142;28;20511;-69
2022/08/27 06:23:19;;;;;;;4.75;2.03;;;;;;;23.43;48.60;101670.19;4974088;28;20042;-70
2022/08/27 06:25:44;;;;;;;6.53;2.00;;;;;;;23.51;48.45;101679.16;4962252;28;20034;-68
2022/08/27 06:28:10;;;;;;;5.00;1.95;;;;;;;23.56;48.79;101678.75;4962573;28;20109;-77
2022/08/27 06:30:36;;;;;;;4.13;1.85;;;;;;;23.52;49.05;101677.31;4972592;28;20351;-74
2022/08/27 06:33:01;;;;;;;5.27;2.17;;;;;;;23.46;48.48;101681.38;4967035;28;20037;-69
2022/08/27 06:35:26;;;;;;;5.68;2.17;;;;;;;23.49;48.86;101677.59;4969240;28;20265;-67
2022/08/27 06:37:52;;;;;;;4.70;1.97;;;;;;;23.57;49.27;101677.75;4960683;28;20081;-66
2022/08/27 06:40:17;;;;;;;5.40;2.00;;;;;;;23.61;48.57;101678.31;4962107;28;20027;-69
2022/08/27 06:42:43;;;;;;;4.77;1.90;;;;;;;23.65;48.52;101677.03;4973859;28;20035;-69
2022/08/27 06:45:09;;;;;;;4.88;1.80;;;;;;;23.68;48.94;101674.09;4971188;28;20267;-68
2022/08/27 06:47:34;;;;;;;4.35;2.00;;;;;;;23.72;48.67;101675.50;4975895;28;20150;-68
2022/08/27 06:50:00;;;;;;;5.57;2.00;;;;;;;23.77;48.61;101680.41;4975890;28;20059;-70
2022/08/27 06:52:25;;;;;;;5.97;2.38;;;;;;;23.75;48.85;101677.88;4980206;28;20034;-69
2022/08/27 06:54:50;;;;;;;5.45;2.10;;;;;;;23.78;48.97;101677.56;4969063;28;20038;-68
2022/08/27 06:57:16;;;;;;;4.03;1.73;;;;;;;23.77;48.98;101675.09;4965572;28;20027;-71
2022/08/27 06:59:42;;;;;;;4.30;1.95;;;;;;;23.79;48.59;101678.44;4985054;28;20391;-68
2022/08/27 07:02:08;;;;;;;5.10;1.80;;;;;;;23.79;49.11;101670.44;4964643;28;20105;-67
2022/08/27 07:04:33;;;;;;;6.10;1.98;;;;;;;23.79;48.75;101678.44;4980766;28;20471;-68
2022/08/27 07:07:02;;;;;;;5.10;1.77;;;;;;;23.81;48.56;101679.13;4971527;28;20035;-69
2022/08/27 07:09:30;;;;;;;5.80;2.45;;;;;;;23.83;48.58;101678.03;4980905;28;20031;-69
2022/08/27 07:11:56;;;;;;;4.93;2.05;;;;;;;23.84;48.85;101684.19;4984379;28;20030;-69
2022/08/27 07:14:21;;;;;;;4.78;1.83;;;;;;;23.83;48.74;101683.38;4974886;28;20034;-69
2022/08/27 07:16:47;;;;;;;5.97;1.92;;;;;;;23.82;49.20;101684.31;4979235;28;20030;-70
2022/08/27 07:19:12;;;;;;;6.07;2.00;;;;;;;23.86;48.86;101687.53;4982511;28;20034;-71
2022/08/27 07:21:38;;;;;;;4.10;2.13;;;;;;;23.86;48.87;101685.75;4976774;28;20031;-68
2022/08/27 07:24:05;;;;;;;7.68;2.25;;;;;;;23.85;48.71;101684.06;4965722;28;20110;-70
2022/08/27 07:26:33;;;;;;;7.13;1.80;;;;;;;23.88;48.71;101683.78;4930789;28;20483;-70
2022/08/27 07:28:59;;;;;;;5.75;1.83;;;;;;;23.92;48.82;101689.66;4983411;28;20042;-70
2022/08/27 07:31:25;;;;;;;3.85;1.52;;;;;;;23.92;49.09;101689.66;4971620;28;20463;-68
2022/08/27 07:33:50;;;;;;;4.68;1.98;;;;;;;23.93;48.80;101690.50;4964682;28;20050;-66
2022/08/27 07:36:16;;;;;;;6.30;1.90;;;;;;;23.94;48.68;101689.50;4964464;28;20096;-70
2022/08/27 07:38:41;;;;;;;5.00;2.00;;;;;;;23.96;48.62;101695.50;4978283;28;20640;-70
2022/08/27 07:41:10;;;;;;;4.63;1.70;;;;;;;23.93;48.43;101687.84;4983381;28;20035;-69
2022/08/27 07:46:20;;;;;;;;;;;;;;;24.01;48.35;101696.78;4965629;28;20089;-71
2022/08/27 07:48:47;;;;;;;4.95;1.90;;;;;;;23.99;48.52;101690.75;4983613;28;19963;-68
2022/08/27 07:51:18;;;;;;;4.50;1.88;;;;;;;23.94;48.22;101689.50;4980871;28;20125;-70
2022/08/27 07:53:45;;;;;;;5.07;1.90;;;;;;;24.00;48.65;101705.75;4970915;28;21065;-69
2022/08/27 07:56:11;;;;;;;4.82;2.05;;;;;;;23.98;48.49;101702.38;4966435;28;20101;-73
2022/08/27 07:58:37;;;;;;;4.55;1.92;;;;;;;23.98;48.31;101705.03;4978309;28;20022;-75
2022/08/27 08:01:02;;;;;;;7.50;1.88;;;;;;;23.93;48.54;101701.16;4967381;28;20092;-73
2022/08/27 08:03:28;;;;;;;3.78;1.60;;;;;;;24.00;48.65;101702.25;4981055;28;20415;-76
2022/08/27 08:05:54;;;;;;;4.70;1.73;;;;;;;23.99;48.16;101698.75;4965419;28;20035;-75
2022/08/27 08:08:20;;;;;;;5.40;1.77;;;;;;;24.02;48.32;101708.25;4971922;28;20039;-74
2022/08/27 08:10:47;;;;;;;6.50;1.92;;;;;;;24.00;48.23;101708.41;4964363;28;20039;-76
2022/08/27 08:13:13;;;;;;;4.88;1.80;;;;;;;23.97;48.78;101705.19;4979877;28;20122;-73
2022/08/27 08:15:39;;;;;;;4.93;1.80;;;;;;;23.97;48.79;101697.19;4967070;28;20114;-73
2022/08/27 08:18:04;;;;;;;5.40;1.80;;;;;;;23.96;48.59;101700.84;4963458;28;20067;-74
2022/08/27 08:20:30;;;;;;;4.53;1.90;;;;;;;24.00;48.57;101708.41;4963249;28;20042;-73
2022/08/27 08:22:55;;;;;;;5.80;1.80;;;;;;;24.02;48.57;101698.47;4963639;28;20084;-75
2022/08/27 08:25:21;;;;;;;5.03;1.75;;;;;;;24.02;48.91;101692.28;4969831;28;20030;-77
2022/08/27 08:27:47;;;;;;;9.52;2.03;;;;;;;24.10;48.52;101695.09;4974340;28;20055;-76
2022/08/27 08:30:12;;;;;;;4.30;1.60;;;;;;;24.16;48.66;101707.81;4981194;28;20406;-73
2022/08/27 08:32:38;;;;;;;5.72;2.15;;;;;;;24.20;48.45;101711.88;4975424;28;20030;-74
2022/08/27 08:35:04;;;;;;;5.57;2.00;;;;;;;24.29;47.97;101709.31;4974259;28;20034;-72
2022/08/27 08:37:30;;;;;;;5.85;1.92;;;;;;;24.29;48.29;101706.66;4972076;28;20197;-73
2022/08/27 08:39:55;;;;;;;5.25;1.75;;;;;;;24.31;48.06;101715.34;4968972;28;20038;-75
2022/08/27 08:42:44;;;;;;;6.38;2.00;;;;;;;24.30;47.04;101708.34;4973663;28;20584;-75
2022/08/27 08:45:15;;;;;;;6.80;2.20;;;;;;;24.34;47.62;101709.72;4967892;28;20953;-73
2022/08/27 08:47:45;;;;;;;3.70;1.73;;;;;;;24.34;47.80;101710.56;4973455;28;20065;-74
2022/08/27 08:50:28;;;;;;;5.55;1.75;;;;;;;24.40;47.31;101706.47;4976016;28;20039;-73
2022/08/27 08:53:18;;;;;;;5.95;1.92;;;;;;;24.42;47.79;101710.69;4968150;28;20628;-72
2022/08/27 08:55:47;;;;;;;6.95;2.03;;;;;;;24.44;47.72;101713.22;4970966;28;20037;-73
2022/08/27 08:58:15;;;;;;;4.55;1.80;;;;;;;24.52;47.36;101712.47;4975212;28;20034;-72
2022/08/27 09:00:43;;;;;;;4.13;1.90;;;;;;;24.53;47.31;101700.81;4970823;28;20034;-72
2022/08/27 09:03:11;;;;;;;3.60;1.52;;;;;;;24.61;46.73;101715.13;4972700;28;20038;-73
2022/08/27 09:05:40;;;;;;;4.65;1.73;;;;;;;24.67;46.75;101710.19;4973799;28;20121;-74
2022/08/27 09:08:30;;;;;;;6.50;1.70;;;;;;;24.72;46.76;101710.59;4974012;28;20031;-74
2022/08/27 09:11:20;;;;;;;3.78;1.60;;;;;;;24.78;46.62;101718.00;4976757;28;20034;-71
2022/08/27 09:13:50;;;;;;;4.15;1.65;;;;;;;24.76;46.91;101706.66;4970715;28;20081;-73
2022/08/27 09:16:15;;;;;;;5.82;1.50;;;;;;;24.80;46.80;101710.69;4972927;28;20030;-74
2022/08/27 09:18:43;;;;;;;4.68;1.77;;;;;;;24.84;46.66;101722.75;4976877;28;20076;-72
2022/08/27 09:21:51;;;;;;;5.05;1.67;;;;;;;24.87;46.45;101726.94;4972830;28;20032;-72
2022/08/27 09:24:38;;;;;;;3.92;1.70;;;;;;;24.88;46.33;101716.13;4959966;28;20493;-73
2022/08/27 09:27:03;;;;;;;5.20;1.48;;;;;;;24.88;46.03;101707.28;4973158;28;20109;-72
2022/08/27 09:29:29;;;;;;;4.47;1.40;;;;;;;24.87;46.22;101711.78;4966698;28;20034;-71
2022/08/27 09:32:05;;;;;;;3.60;1.75;;;;;;;24.95;46.43;101713.72;4981321;28;20037;-74
2022/08/27 09:34:37;;;;;;;3.33;1.40;;;;;;;24.96;46.08;101715.41;4974746;28;20034;-72
2022/08/27 09:37:14;;;;;;;4.28;1.50;;;;;;;24.90;45.89;101706.16;4978920;28;20034;-72
2022/08/27 09:40:06;;;;;;;4.80;1.50;;;;;;;24.99;46.51;101717.72;4977134;28;20474;-73
2022/08/27 09:42:42;;;;;;;4.60;1.55;;;;;;;24.97;46.13;101712.56;4978234;28;20185;-72
2022/08/27 09:45:28;;;;;;;3.45;1.50;;;;;;;25.00;46.40;101722.09;4969302;28;20039;-74
2022/08/27 09:48:10;;;;;;;3.65;1.40;;;;;;;24.99;45.64;101721.25;4974370;28;20030;-73
2022/08/27 09:50:40;;;;;;;3.33;1.30;;;;;;;25.01;46.13;101714.91;4973088;28;20038;-72
2022/08/27 09:53:26;;;;;;;4.68;1.60;;;;;;;25.01;46.22;101717.59;4978702;28;20030;-71
2022/08/27 09:55:57;;;;;;;4.03;1.40;;;;;;;24.98;45.91;101719.56;4981239;28;20034;-73
2022/08/27 09:58:29;;;;;;;3.47;1.35;;;;;;;24.96;46.22;101721.56;4979847;28;20026;-73
2022/08/27 10:01:25;;;;;;;4.43;1.73;;;;;;;24.99;46.02;101726.59;4969802;28;20372;-72
2022/08/27 10:04:13;;;;;;;4.13;1.50;;;;;;;25.01;45.99;101721.13;4977022;28;20045;-71
2022/08/27 10:06:46;;;;;;;4.80;1.70;;;;;;;25.06;46.03;101728.66;4974390;28;20027;-70
2022/08/27 10:09:22;;;;;;;4.75;1.77;;;;;;;25.03;45.69;101712.97;4963286;28;20038;-73
2022/08/27 10:12:05;;;;;;;3.72;1.40;;;;;;;25.08;46.10;101724.84;4961642;28;20066;-71
2022/08/27 10:14:37;;;;;;;5.10;1.70;;;;;;;25.08;45.69;101714.19;4962036;28;20122;-71
2022/08/27 10:17:13;;;;;;;3.92;1.50;;;;;;;25.11;45.78;101718.38;4961905;28;20050;-73
2022/08/27 10:20:02;;;;;;;4.22;1.40;;;;;;;25.14;45.74;101721.59;4965533;28;20531;-71
2022/08/27 10:22:53;;;;;;;3.13;1.48;;;;;;;25.14;45.40;101712.75;4969292;28;20119;-74
2022/08/27 10:25:36;;;;;;;3.63;1.35;;;;;;;25.17;45.33;101707.94;4983578;28;20042;-74
2022/08/27 10:28:37;;;;;;;4.15;1.42;;;;;;;25.17;45.52;101709.78;4974140;28;20125;-74
2022/08/27 10:31:35;;;;;;;3.53;1.50;;;;;;;25.17;45.33;101707.13;4975851;28;20039;-73
2022/08/27 10:34:33;;;;;;;3.75;1.65;;;;;;;25.16;45.65;101711.59;4949097;28;20493;-73
2022/08/27 10:37:35;;;;;;;4.50;1.50;;;;;;;25.12;45.69;101694.22;4974865;28;20029;-74
2022/08/27 10:40:27;;;;;;;4.45;1.55;;;;;;;25.16;45.42;101705.44;4982883;28;20110;-67
2022/08/27 10:43:22;;;;;;;3.40;1.33;;;;;;;25.16;45.25;101700.09;4972982;28;20434;-67
2022/08/27 10:46:36;;;;;;;5.03;1.67;;;;;;;25.17;45.23;101699.13;4974756;28;20402;-66
2022/08/27 10:49:25;;;;;;;4.50;1.40;;;;;;;25.22;45.36;101696.00;4934486;28;20475;-66
2022/08/27 10:52:26;;;;;;;3.70;1.63;;;;;;;25.29;45.04;101707.75;4973878;28;20034;-66
2022/08/27 10:54:55;;;;;;;3.50;1.50;;;;;;;25.31;44.95;101703.97;4971748;28;20054;-74
2022/08/27 10:57:45;;;;;;;3.03;1.45;;;;;;;25.27;45.12;101702.53;4969565;28;20042;-66
2022/08/27 11:00:20;;;;;;;4.13;1.80;;;;;;;25.25;45.19;101690.38;4970311;28;20498;-67
2022/08/27 11:03:10;;;;;;;3.83;1.55;;;;;;;25.30;45.03;101706.78;4980480;28;20148;-72
2022/08/27 11:05:42;;;;;;;4.00;1.60;;;;;;;25.19;45.03;101697.13;4975695;28;20038;-72
2022/08/27 11:08:27;;;;;;;4.28;1.67;;;;;;;25.10;44.95;101696.22;4984027;28;20543;-71
2022/08/27 11:11:04;;;;;;;4.53;1.40;;;;;;;25.10;45.11;101701.56;4984100;28;20861;-71
2022/08/27 11:13:38;;;;;;;4.20;1.73;;;;;;;25.09;45.34;101704.38;4984399;28;20042;-72
2022/08/27 11:16:16;;;;;;;4.63;1.52;;;;;;;25.00;44.84;101690.09;4968873;28;20035;-73
2022/08/27 11:18:47;;;;;;;5.03;1.60;;;;;;;25.08;45.21;101700.00;4979125;28;20038;-72
2022/08/27 11:21:17;;;;;;;4.00;1.50;;;;;;;25.09;44.93;101697.19;4978350;28;20145;-72
2022/08/27 11:23:53;;;;;;;2.67;1.13;;;;;;;25.11;45.21;101699.72;4980509;28;20069;-72
2022/08/27 11:26:18;;;;;;;3.70;1.33;;;;;;;25.10;45.12;101688.22;4964881;28;20081;-73
2022/08/27 11:28:48;;;;;;;5.75;1.52;;;;;;;25.11;45.12;101689.88;4968880;28;20500;-72
2022/08/27 11:31:46;;;;;;;4.53;1.25;;;;;;;25.14;45.13;101688.75;4972131;28;20065;-74
2022/08/27 11:34:29;;;;;;;3.78;1.40;;;;;;;25.17;45.32;101691.94;4982959;28;20049;-72
2022/08/27 11:37:17;;;;;;;3.22;1.50;;;;;;;25.19;44.87;101688.28;4964303;28;20039;-73
2022/08/27 11:39:48;;;;;;;4.72;1.42;;;;;;;25.22;44.82;101694.16;4964850;28;20483;-67
2022/08/27 11:42:34;;;;;;;4.65;1.55;;;;;;;25.24;44.95;101688.66;4967477;28;20863;-67
2022/08/27 11:45:16;;;;;;;3.47;1.23;;;;;;;25.29;45.07;101689.94;4973873;28;20038;-67
2022/08/27 11:47:51;;;;;;;4.28;1.83;;;;;;;25.31;44.50;101685.28;4968847;28;20053;-72